EDT,Max TemperatureF,Mean TemperatureF,Min TemperatureF,Max Dew PointF,MeanDew PointF,Min DewpointF,Max Humidity, Mean Humidity, Min Humidity, Max Sea Level PressureIn, Mean Sea Level PressureIn, Min Sea Level PressureIn, Max VisibilityMiles, Mean VisibilityMiles, Min VisibilityMiles, Max Wind SpeedMPH, Mean Wind SpeedMPH, Max Gust SpeedMPH,PrecipitationIn, CloudCover, Events, WindDirDegrees
2012-10-1,71,60,50,52,48,46,89,67,42,29.99,29.92,29.86,10,10,10,17,10,23,0.00,0,,258
2012-10-2,73,62,52,68,60,49,96,85,49,30.06,30.02,29.99,10,8,2,8,2,,0.23,7,Rain,106
2012-10-3,69,68,66,68,67,66,100,96,94,30.08,30.02,29.99,2,1,0,6,3,,0.04,8,Fog-Rain,44
2012-10-4,,,,,,,,,,,,,,,,,,,,,,
2012-10-5,77,66,57,63,59,54,94,77,59,30.06,30.00,29.96,10,8,2,9,4,,0.00,1,,224
2012-10-6,70,60,53,65,53,50,94,91,84,29.96,29.91,29.88,9,4,0,7,0,,0.00,4,Fog,194
2012-10-7,60,54,48,48,46,38,90,78,49,30.11,30.08,30.04,10,9,4,9,5,,0.15,8,Rain,322
2012-10-8,57,45,35,47,42,33,100,84,57,30.31,30.20,30.12,10,8,0,8,1,,0.00,3,Fog,360
2012-10-9,59,56,53,54,52,44,94,84,69,30.25,30.17,30.10,10,9,4,16,10,25,0.01,8,Rain,49
2012-10-10,71,62,55,64,57,46,94,85,61,30.09,29.93,29.79,10,7,2,14,7,21,0.19,6,Rain,93
2012-10-11,60,49,37,39,36,33,89,58,38,30.19,30.12,29.94,10,10,10,20,9,25,0.00,0,,282
2012-10-12,55,36,34,45,35,31,93,87,69,30.17,30.12,30.09,10,10,9,10,1,,0.00,0,,304
2012-10-13,54,47,41,39,30,24,76,49,35,30.53,30.44,30.33,10,10,10,10,5,20,0.00,0,,189
2012-10-14,69,62,57,59,52,43,84,67,56,30.31,30.16,30.01,10,10,10,21,13,29,0.00,3,,216
2012-10-15,69,66,62,63,61,59,94,83,75,29.98,29.78,29.66,10,10,8,15,12,31,0.03,7,Rain,207
2012-10-16,61,48,35,58,42,32,93,69,42,29.92,29.75,29.61,10,10,10,22,9,30,0.02,3,Rain,312
2012-10-17,59,44,30,45,36,28,89,75,47,30.04,29.99,29.94,10,10,10,7,1,,0.00,0,,338
2012-10-18,64,50,36,56,46,33,89,71,56,30.09,30.06,30.01,10,10,9,9,4,16,0.00,3,,134
2012-10-19,68,64,62,65,63,58,94,92,84,30.01,29.84,29.72,10,6,2,13,7,22,0.47,8,Rain,138
2012-10-20,68,67,66,66,66,66,97,96,94,29.73,29.72,29.71,8,6,3,9,9,18,0.05,8,Rain,188
2012-10-21,,,,,,,,,,,,,,,,,,,,,,
2012-10-22,66,60,46,44,41,39,83,52,38,30.06,30.03,30.00,10,10,10,16,12,23,0.00,0,,285
2012-10-23,64,46,39,47,41,37,90,81,46,30.14,30.10,30.07,10,10,10,6,2,,0.00,0,,330
2012-10-24,,,,,,,,,,,,,,,,,,,,,,
2012-10-25,,,,,,,,,,,,,,,,,,,,,,
2012-10-26,66,62,57,55,54,52,84,72,63,30.25,30.18,30.14,10,10,10,9,5,,0.00,5,,139
2012-10-27,66,60,57,55,51,41,87,71,53,30.13,30.03,29.93,10,10,10,12,3,16,0.00,4,,78
2012-10-28,61,58,55,52,50,42,84,75,56,29.93,29.81,29.62,10,10,8,26,15,40,0.00,7,Rain,47
2012-10-29,60,58,55,58,55,50,94,89,80,29.61,29.24,28.95,10,4,1,38,27,59,0.17,8,Rain,40
2012-10-30,,,,,,,,,,,,,,,,,,,,,,
2012-10-31,55,49,46,45,42,37,93,75,59,29.61,29.57,29.55,10,10,10,14,4,21,0.02,8,Rain,259